createdAt,value
2022-08-29T00:01:32.186Z,19.38
2022-08-29T00:04:02.289Z,19.77
2022-08-29T00:06:30.935Z,19.73
2022-08-29T00:08:59.370Z,19.79
2022-08-29T00:11:27.705Z,19.75
2022-08-29T00:13:55.933Z,19.72
2022-08-29T00:16:24.188Z,19.70
2022-08-29T00:18:52.785Z,19.40
2022-08-29T00:21:22.439Z,19.66
2022-08-29T00:23:50.610Z,19.69
2022-08-29T00:26:18.985Z,19.66
2022-08-29T00:28:47.176Z,19.20
2022-08-29T00:31:15.441Z,19.56
2022-08-29T00:33:43.753Z,19.66
2022-08-29T00:36:11.985Z,19.70
2022-08-29T00:38:41.865Z,19.71
2022-08-29T00:41:10.210Z,19.65
2022-08-29T00:43:39.385Z,19.73
2022-08-29T00:46:27.501Z,19.72
2022-08-29T00:48:58.635Z,19.82
2022-08-29T00:51:27.045Z,19.61
2022-08-29T00:54:03.117Z,19.84
2022-08-29T00:56:32.835Z,19.78
2022-08-29T00:59:05.744Z,19.67
2022-08-29T01:01:34.124Z,19.64
2022-08-29T01:04:02.533Z,19.73
2022-08-29T01:06:35.247Z,19.67
2022-08-29T01:09:05.919Z,19.75
2022-08-29T01:11:52.615Z,19.80
2022-08-29T01:14:23.334Z,19.57
2022-08-29T01:16:55.536Z,19.58
2022-08-29T01:19:33.577Z,19.58
2022-08-29T01:22:13.425Z,19.58
2022-08-29T01:24:50.721Z,19.36
2022-08-29T01:27:20.968Z,19.38
2022-08-29T01:29:50.043Z,19.65
2022-08-29T01:32:18.511Z,19.26
2022-08-29T01:34:47.110Z,19.25
2022-08-29T01:37:17.226Z,18.40
2022-08-29T01:39:47.415Z,19.60
2022-08-29T01:42:18.526Z,19.65
2022-08-29T01:44:51.115Z,19.11
2022-08-29T01:47:21.506Z,19.74
2022-08-29T01:49:49.748Z,19.87
2022-08-29T01:52:18.247Z,19.85
2022-08-29T01:54:48.269Z,19.86
2022-08-29T01:57:17.695Z,19.81
2022-08-29T01:59:46.844Z,19.76
2022-08-29T02:02:18.426Z,19.75
2022-08-29T02:04:47.451Z,19.65
2022-08-29T02:07:17.672Z,19.60
2022-08-29T02:09:48.160Z,19.43
2022-08-29T02:12:17.725Z,19.47
2022-08-29T02:14:46.217Z,19.43
2022-08-29T02:17:15.136Z,19.42
2022-08-29T02:19:44.262Z,19.48
2022-08-29T02:22:12.807Z,19.50
2022-08-29T02:24:41.123Z,19.47
2022-08-29T02:27:12.750Z,19.46
2022-08-29T02:29:41.221Z,19.50
2022-08-29T02:32:12.341Z,19.51
2022-08-29T02:34:44.459Z,19.44
2022-08-29T02:37:15.356Z,19.56
2022-08-29T02:39:43.520Z,19.51
2022-08-29T02:42:13.288Z,19.55
2022-08-29T02:44:41.478Z,19.34
2022-08-29T02:47:10.619Z,19.74
2022-08-29T02:49:39.692Z,19.57
2022-08-29T02:52:08.860Z,19.43
2022-08-29T02:54:37.235Z,18.94
2022-08-29T02:57:06.272Z,19.34
2022-08-29T02:59:36.435Z,19.35
2022-08-29T03:02:04.774Z,19.33
2022-08-29T03:04:32.975Z,19.21
2022-08-29T03:07:01.137Z,19.34
2022-08-29T03:09:29.317Z,19.26
2022-08-29T03:11:57.514Z,19.20
2022-08-29T03:14:25.827Z,19.13
2022-08-29T03:16:55.397Z,18.97
2022-08-29T03:19:24.109Z,19.17
2022-08-29T03:21:52.309Z,19.02
2022-08-29T03:24:26.258Z,18.96
2022-08-29T03:26:56.686Z,19.08
2022-08-29T03:29:25.814Z,19.11
2022-08-29T03:31:58.495Z,19.14
2022-08-29T03:34:27.500Z,19.17
2022-08-29T03:36:55.906Z,19.15
2022-08-29T03:39:24.158Z,18.96
2022-08-29T03:41:52.777Z,19.13
2022-08-29T03:44:21.088Z,19.06
2022-08-29T03:46:49.368Z,19.07
2022-08-29T03:49:19.055Z,18.63
2022-08-29T03:51:47.217Z,19.03
2022-08-29T03:54:15.387Z,18.93
2022-08-29T03:56:43.633Z,18.93
2022-08-29T03:59:11.871Z,19.05
2022-08-29T04:01:40.178Z,19.05
2022-08-29T04:04:08.423Z,19.06
2022-08-29T04:06:38.017Z,19.10
2022-08-29T04:09:06.227Z,19.09
2022-08-29T04:11:34.417Z,19.01
2022-08-29T04:14:03.110Z,18.93
2022-08-29T04:16:31.709Z,18.85
2022-08-29T04:19:00.896Z,18.71
2022-08-29T04:21:29.069Z,18.98
2022-08-29T04:23:58.717Z,19.05
2022-08-29T04:26:42.257Z,18.75
2022-08-29T04:29:13.957Z,18.85
2022-08-29T04:31:43.859Z,18.80
2022-08-29T04:34:14.576Z,18.75
2022-08-29T04:36:45.475Z,18.76
2022-08-29T04:39:16.054Z,18.72
2022-08-29T04:41:44.927Z,18.74
2022-08-29T04:44:14.268Z,18.80
2022-08-29T04:46:42.426Z,18.83
2022-08-29T04:49:10.678Z,18.73
2022-08-29T04:51:38.951Z,18.74
2022-08-29T04:54:07.966Z,18.85
2022-08-29T04:56:38.327Z,18.81
2022-08-29T04:59:11.319Z,18.86
2022-08-29T05:01:39.664Z,18.90
2022-08-29T05:04:14.406Z,18.83
2022-08-29T05:06:43.710Z,18.78
2022-08-29T05:09:11.927Z,18.57
2022-08-29T05:11:41.639Z,18.63
2022-08-29T05:14:10.278Z,18.70
2022-08-29T05:16:39.073Z,18.67
2022-08-29T05:19:09.700Z,18.75
2022-08-29T05:21:39.980Z,18.89
2022-08-29T05:24:10.956Z,18.72
2022-08-29T05:26:43.373Z,19.00
2022-08-29T05:29:14.102Z,19.10
2022-08-29T05:31:44.455Z,18.85
2022-08-29T05:34:32.239Z,19.20
2022-08-29T05:37:02.889Z,19.31
2022-08-29T05:39:31.179Z,18.90
2022-08-29T05:42:01.021Z,19.40
2022-08-29T05:44:35.283Z,19.47
2022-08-29T05:47:05.565Z,19.49
2022-08-29T05:49:33.755Z,19.72
2022-08-29T05:52:01.986Z,19.82
2022-08-29T05:54:30.230Z,19.93
2022-08-29T05:56:58.606Z,20.09
2022-08-29T05:59:28.345Z,20.28
2022-08-29T06:01:56.589Z,20.43
2022-08-29T06:04:24.807Z,20.20
2022-08-29T06:06:52.997Z,20.82
2022-08-29T06:09:21.214Z,21.02
2022-08-29T06:11:51.210Z,20.77
2022-08-29T06:14:19.845Z,21.48
2022-08-29T06:16:49.497Z,21.70
2022-08-29T06:19:17.688Z,21.84
2022-08-29T06:21:45.906Z,22.17
2022-08-29T06:24:15.247Z,22.36
2022-08-29T06:26:44.673Z,22.49
2022-08-29T06:29:14.837Z,22.59
2022-08-29T06:31:43.212Z,22.17
2022-08-29T06:34:13.096Z,22.83
2022-08-29T06:36:41.616Z,22.98
2022-08-29T06:39:11.941Z,23.09
2022-08-29T06:41:41.461Z,23.26
2022-08-29T06:44:10.778Z,23.48
2022-08-29T06:46:41.178Z,23.58
2022-08-29T06:49:11.878Z,23.71
2022-08-29T06:51:44.408Z,23.87
2022-08-29T06:54:13.964Z,23.72
2022-08-29T06:56:42.533Z,23.86
2022-08-29T06:59:11.358Z,23.74
2022-08-29T07:01:41.832Z,23.88
2022-08-29T07:04:14.306Z,23.97
2022-08-29T07:06:45.593Z,23.93
2022-08-29T07:09:14.295Z,23.79
2022-08-29T07:11:43.394Z,23.31
2022-08-29T07:14:13.186Z,23.69
2022-08-29T07:16:42.220Z,23.47
2022-08-29T07:19:11.514Z,23.24
2022-08-29T07:21:40.719Z,23.28
2022-08-29T07:24:10.880Z,22.97
2022-08-29T07:26:43.959Z,22.88
2022-08-29T07:29:15.148Z,23.07
2022-08-29T07:31:43.770Z,23.17
2022-08-29T07:34:12.429Z,23.32
2022-08-29T07:36:41.106Z,23.15
2022-08-29T07:39:12.717Z,22.97
2022-08-29T07:41:42.095Z,22.64
2022-08-29T07:44:11.438Z,22.63
2022-08-29T07:46:39.969Z,22.95
2022-08-29T07:49:08.826Z,23.09
2022-08-29T07:51:37.548Z,23.27
2022-08-29T07:54:17.069Z,23.35
2022-08-29T07:56:46.100Z,23.46
2022-08-29T07:59:14.552Z,23.82
2022-08-29T08:01:42.840Z,23.98
2022-08-29T08:04:11.849Z,23.89
2022-08-29T08:06:42.138Z,23.52
2022-08-29T08:09:11.878Z,23.87
2022-08-29T08:11:42.587Z,24.01
2022-08-29T08:14:11.409Z,23.64
2022-08-29T08:16:44.358Z,23.99
2022-08-29T08:19:13.087Z,23.89
2022-08-29T08:21:49.242Z,23.85
2022-08-29T08:24:19.831Z,23.90
2022-08-29T08:26:50.317Z,23.98
2022-08-29T08:29:19.167Z,24.23
2022-08-29T08:31:50.223Z,24.48
2022-08-29T08:34:18.710Z,24.60
2022-08-29T08:36:47.156Z,24.79
2022-08-29T08:39:16.288Z,24.75
2022-08-29T08:41:58.428Z,24.79
2022-08-29T08:45:06.617Z,24.96
2022-08-29T08:47:40.389Z,25.12
2022-08-29T08:50:16.482Z,25.25
2022-08-29T08:52:49.070Z,25.27
2022-08-29T08:55:26.947Z,25.29
2022-08-29T08:58:05.486Z,25.37
2022-08-29T09:00:45.572Z,25.42
2022-08-29T09:03:30.334Z,25.59
2022-08-29T09:06:12.036Z,25.65
2022-08-29T09:08:50.529Z,25.68
2022-08-29T09:11:28.670Z,25.87
2022-08-29T09:14:08.585Z,25.77
2022-08-29T09:16:42.938Z,26.01
2022-08-29T09:19:17.332Z,26.07
2022-08-29T09:21:49.684Z,26.09
2022-08-29T09:24:26.265Z,26.20
2022-08-29T09:26:54.509Z,26.28
2022-08-29T09:29:25.837Z,26.39
2022-08-29T09:32:10.326Z,26.50
2022-08-29T09:35:06.965Z,26.37
2022-08-29T09:37:32.249Z,26.39
2022-08-29T09:40:03.951Z,26.47
2022-08-29T09:42:35.634Z,26.69
2022-08-29T09:45:19.136Z,26.84
2022-08-29T09:47:47.586Z,26.83
2022-08-29T09:50:24.752Z,26.65
2022-08-29T09:52:54.737Z,26.29
2022-08-29T09:55:32.176Z,26.23
2022-08-29T09:58:04.866Z,26.42
2022-08-29T10:00:36.502Z,26.49
2022-08-29T10:03:07.980Z,26.56
2022-08-29T10:05:44.530Z,26.27
2022-08-29T10:08:35.459Z,25.71
2022-08-29T10:11:05.847Z,25.51
2022-08-29T10:13:46.277Z,25.55
2022-08-29T10:16:23.387Z,25.53
2022-08-29T10:18:56.101Z,25.61
2022-08-29T10:21:33.494Z,25.70
2022-08-29T10:24:15.898Z,25.92
2022-08-29T10:26:57.036Z,26.18
2022-08-29T10:29:38.364Z,26.43
2022-08-29T10:32:16.137Z,26.42
2022-08-29T10:35:02.127Z,26.82
2022-08-29T10:37:40.247Z,26.40
2022-08-29T10:40:16.814Z,26.59
2022-08-29T10:42:48.717Z,26.81
2022-08-29T10:45:26.968Z,26.95
2022-08-29T10:48:04.319Z,26.95
2022-08-29T10:50:44.451Z,26.58
2022-08-29T10:53:17.889Z,26.15
2022-08-29T10:55:54.365Z,25.54
2022-08-29T10:58:45.228Z,25.23
2022-08-29T11:01:22.431Z,24.88
2022-08-29T11:03:59.151Z,24.60
2022-08-29T11:09:14.861Z,24.17
2022-08-29T11:11:47.875Z,23.98
2022-08-29T11:14:25.918Z,23.71
2022-08-29T11:16:56.318Z,23.29
2022-08-29T11:19:33.457Z,22.79
2022-08-29T11:22:06.426Z,22.57
2022-08-29T11:24:38.162Z,22.30
2022-08-29T11:27:23.376Z,22.01
2022-08-29T11:29:58.636Z,21.88
2022-08-29T11:32:36.412Z,21.63
2022-08-29T11:35:18.175Z,21.51
2022-08-29T11:38:27.196Z,21.42
2022-08-29T11:41:30.643Z,21.37
2022-08-29T11:44:12.005Z,21.39
2022-08-29T11:46:43.431Z,21.49
2022-08-29T11:49:42.996Z,21.49
2022-08-29T11:52:23.557Z,21.42
2022-08-29T11:55:11.276Z,21.33
2022-08-29T11:57:48.078Z,21.30
2022-08-29T12:00:42.163Z,21.24
2022-08-29T12:03:53.888Z,21.27
2022-08-29T12:06:55.760Z,21.16
2022-08-29T12:09:47.556Z,21.17
2022-08-29T12:12:47.483Z,21.26
2022-08-29T12:16:00.010Z,21.30
2022-08-29T12:18:55.997Z,21.17
2022-08-29T12:21:47.313Z,21.28
2022-08-29T12:24:44.416Z,21.43
2022-08-29T12:28:05.955Z,21.54
2022-08-29T12:30:39.821Z,21.60
2022-08-29T12:33:20.707Z,21.71
2022-08-29T12:36:12.789Z,21.92
2022-08-29T12:38:55.210Z,22.07
2022-08-29T12:41:37.046Z,22.23
2022-08-29T12:44:13.820Z,22.28
2022-08-29T12:46:44.536Z,22.22
2022-08-29T12:49:22.335Z,22.30
2022-08-29T12:51:55.698Z,22.27
2022-08-29T12:54:33.490Z,22.51
2022-08-29T12:57:02.896Z,22.84
2022-08-29T12:59:32.536Z,23.33
2022-08-29T13:02:01.255Z,23.90
2022-08-29T13:04:34.050Z,24.58
2022-08-29T13:07:04.749Z,25.33
2022-08-29T13:09:35.986Z,25.90
2022-08-29T13:12:13.709Z,26.44
2022-08-29T13:14:52.131Z,26.81
2022-08-29T13:17:22.847Z,27.11
2022-08-29T13:20:28.470Z,27.17
2022-08-29T13:23:15.894Z,27.41
2022-08-29T13:25:47.054Z,27.66
2022-08-29T13:28:18.179Z,27.93
2022-08-29T13:31:04.772Z,28.25
2022-08-29T13:33:35.510Z,28.67
2022-08-29T13:36:31.770Z,28.86
2022-08-29T13:39:41.130Z,29.08
2022-08-29T13:42:19.504Z,29.16
2022-08-29T13:44:59.976Z,29.27
2022-08-29T13:47:32.216Z,29.13
2022-08-29T13:50:02.190Z,29.25
2022-08-29T13:52:31.957Z,29.27
2022-08-29T13:55:00.496Z,29.24
2022-08-29T13:57:30.617Z,29.66
2022-08-29T13:59:59.479Z,30.22
2022-08-29T14:02:30.589Z,30.78
2022-08-29T14:04:58.945Z,31.32
2022-08-29T14:07:30.069Z,31.81
2022-08-29T14:09:58.465Z,31.96
2022-08-29T14:12:33.897Z,31.90
2022-08-29T14:15:06.751Z,31.99
2022-08-29T14:17:40.479Z,32.32
2022-08-29T14:20:10.819Z,32.64
2022-08-29T14:22:39.768Z,31.92
2022-08-29T14:25:09.389Z,30.78
2022-08-29T14:27:38.109Z,29.83
2022-08-29T14:30:08.356Z,29.26
2022-08-29T14:32:36.849Z,29.10
2022-08-29T14:35:07.805Z,29.09
2022-08-29T14:37:36.518Z,29.02
2022-08-29T14:40:05.954Z,29.03
2022-08-29T14:42:34.296Z,29.07
2022-08-29T14:45:02.490Z,29.54
2022-08-29T14:47:30.815Z,30.22
2022-08-29T14:49:59.230Z,30.70
2022-08-29T14:52:29.405Z,30.52
2022-08-29T14:54:57.678Z,30.45
2022-08-29T14:57:25.838Z,30.15
2022-08-29T14:59:54.158Z,30.26
2022-08-29T15:02:22.353Z,31.33
2022-08-29T15:04:51.215Z,33.12
2022-08-29T15:07:19.467Z,34.53
2022-08-29T15:09:49.398Z,35.04
2022-08-29T15:12:18.346Z,34.27
2022-08-29T15:14:46.869Z,34.97
2022-08-29T15:17:15.405Z,35.12
2022-08-29T15:22:32.227Z,33.87
2022-08-29T15:25:03.501Z,32.60
2022-08-29T15:27:32.526Z,32.54
2022-08-29T15:30:00.761Z,32.59
2022-08-29T15:32:29.103Z,32.72
2022-08-29T15:34:57.346Z,32.43
2022-08-29T15:37:25.526Z,32.19
2022-08-29T15:39:55.073Z,32.24
2022-08-29T15:42:30.388Z,32.59
2022-08-29T15:44:59.476Z,32.79
2022-08-29T15:47:30.696Z,33.12
2022-08-29T15:49:59.186Z,33.14
2022-08-29T15:52:30.934Z,33.24
2022-08-29T15:54:59.566Z,33.62
2022-08-29T15:57:29.276Z,34.27
2022-08-29T15:59:58.894Z,35.54
2022-08-29T16:02:27.889Z,35.78
2022-08-29T16:04:57.308Z,35.62
2022-08-29T16:07:28.692Z,35.38
2022-08-29T16:10:00.383Z,35.50
2022-08-29T16:12:31.515Z,36.50
2022-08-29T16:15:01.034Z,37.08
2022-08-29T16:17:31.568Z,37.74
2022-08-29T16:20:01.245Z,37.03
2022-08-29T16:22:30.197Z,36.81
2022-08-29T16:24:58.715Z,35.89
2022-08-29T16:27:27.000Z,34.29
2022-08-29T16:29:57.439Z,32.64
2022-08-29T16:32:25.715Z,31.23
2022-08-29T16:34:54.226Z,30.12
2022-08-29T16:37:22.660Z,28.97
2022-08-29T16:39:50.849Z,28.41
2022-08-29T16:42:19.209Z,27.62
2022-08-29T16:44:47.534Z,27.39
2022-08-29T16:47:17.095Z,26.83
2022-08-29T16:49:47.829Z,25.85
2022-08-29T16:52:16.025Z,26.24
2022-08-29T16:54:44.235Z,25.97
2022-08-29T16:57:12.392Z,25.61
2022-08-29T16:59:40.576Z,25.32
2022-08-29T17:02:09.368Z,25.22
2022-08-29T17:04:39.526Z,24.92
2022-08-29T17:07:07.939Z,24.51
2022-08-29T17:09:34.966Z,24.22
2022-08-29T17:12:02.128Z,24.13
2022-08-29T17:14:30.553Z,23.89
2022-08-29T17:17:00.620Z,23.81
2022-08-29T17:19:29.205Z,23.83
2022-08-29T17:22:02.918Z,23.68
2022-08-29T17:24:31.138Z,23.55
2022-08-29T17:26:59.340Z,23.36
2022-08-29T17:29:27.541Z,23.06
2022-08-29T17:31:55.747Z,22.80
2022-08-29T17:34:24.222Z,22.66
2022-08-29T17:36:52.655Z,22.65
2022-08-29T17:39:22.366Z,22.47
2022-08-29T17:41:51.857Z,22.23
2022-08-29T17:44:20.161Z,22.08
2022-08-29T17:46:48.594Z,22.08
2022-08-29T17:49:16.728Z,22.11
2022-08-29T17:51:45.072Z,22.17
2022-08-29T17:54:25.696Z,22.20
2022-08-29T17:56:56.458Z,22.09
2022-08-29T17:59:27.506Z,21.90
2022-08-29T18:01:56.248Z,22.06
2022-08-29T18:04:26.399Z,21.94
2022-08-29T18:06:55.138Z,22.01
2022-08-29T18:09:26.055Z,21.88
2022-08-29T18:11:55.546Z,21.64
2022-08-29T18:14:24.845Z,21.37
2022-08-29T18:16:53.781Z,22.00
2022-08-29T18:19:22.575Z,22.03
2022-08-29T18:21:51.046Z,22.07
2022-08-29T18:24:19.660Z,21.57
2022-08-29T18:26:50.167Z,21.92
2022-08-29T18:29:18.581Z,21.87
2022-08-29T18:31:46.775Z,21.55
2022-08-29T18:34:16.105Z,21.78
2022-08-29T18:36:45.426Z,21.89
2022-08-29T18:39:15.326Z,21.64
2022-08-29T18:41:43.686Z,21.93
2022-08-29T18:44:13.729Z,22.00
2022-08-29T18:46:46.338Z,21.90
2022-08-29T18:49:16.882Z,21.86
2022-08-29T18:51:45.097Z,21.85
2022-08-29T18:54:17.496Z,21.85
2022-08-29T18:56:48.291Z,21.76
2022-08-29T18:59:18.087Z,21.79
2022-08-29T19:01:46.397Z,21.78
2022-08-29T19:04:14.721Z,21.80
2022-08-29T19:06:42.957Z,21.82
2022-08-29T19:09:11.757Z,21.40
2022-08-29T19:11:40.345Z,21.84
2022-08-29T19:14:08.698Z,21.79
2022-08-29T19:16:38.385Z,21.81
2022-08-29T19:19:07.460Z,21.11
2022-08-29T19:21:41.867Z,21.77
2022-08-29T19:24:10.411Z,21.79
2022-08-29T19:26:40.296Z,21.88
2022-08-29T19:29:13.649Z,21.85
2022-08-29T19:31:45.264Z,21.81
2022-08-29T19:34:13.676Z,21.67
2022-08-29T19:36:46.885Z,21.67
2022-08-29T19:39:16.048Z,21.60
2022-08-29T19:41:44.467Z,21.58
2022-08-29T19:44:12.794Z,21.61
2022-08-29T19:46:49.094Z,21.70
2022-08-29T19:49:20.897Z,20.01
2022-08-29T19:51:49.614Z,21.62
2022-08-29T19:54:17.882Z,21.48
2022-08-29T19:56:46.802Z,21.38
2022-08-29T19:59:15.188Z,21.29
2022-08-29T20:01:46.123Z,21.28
2022-08-29T20:04:14.481Z,21.14
2022-08-29T20:06:42.739Z,20.93
2022-08-29T20:09:12.474Z,21.15
2022-08-29T20:11:43.659Z,21.17
2022-08-29T20:14:14.088Z,21.24
2022-08-29T20:16:45.046Z,21.10
2022-08-29T20:19:13.416Z,21.19
2022-08-29T20:21:43.486Z,21.02
2022-08-29T20:24:15.503Z,20.88
2022-08-29T20:26:48.094Z,20.64
2022-08-29T20:29:17.170Z,20.92
2022-08-29T20:31:47.023Z,20.42
2022-08-29T20:34:16.180Z,20.91
2022-08-29T20:37:02.234Z,20.89
2022-08-29T20:39:30.576Z,20.80
2022-08-29T20:42:01.458Z,20.23
2022-08-29T20:44:37.756Z,20.99
2022-08-29T20:47:09.067Z,20.92
2022-08-29T20:49:43.908Z,20.74
2022-08-29T20:52:14.619Z,20.78
2022-08-29T20:54:46.024Z,20.76
2022-08-29T20:57:15.136Z,20.72
2022-08-29T20:59:44.296Z,20.73
2022-08-29T21:02:14.928Z,20.71
2022-08-29T21:05:00.529Z,20.68
2022-08-29T21:07:29.470Z,20.63
2022-08-29T21:09:58.060Z,20.51
2022-08-29T21:12:28.826Z,20.57
2022-08-29T21:14:56.994Z,20.48
2022-08-29T21:17:26.528Z,20.59
2022-08-29T21:19:54.787Z,20.44
2022-08-29T21:22:25.010Z,20.46
2022-08-29T21:24:56.246Z,20.51
2022-08-29T21:27:24.768Z,20.57
2022-08-29T21:29:56.589Z,20.39
2022-08-29T21:32:26.255Z,20.47
2022-08-29T21:34:54.493Z,20.47
2022-08-29T21:37:22.698Z,20.47
2022-08-29T21:39:50.886Z,20.47
2022-08-29T21:42:19.166Z,20.39
2022-08-29T21:44:47.266Z,20.34
2022-08-29T21:47:17.843Z,20.39
2022-08-29T21:49:51.712Z,20.52
2022-08-29T21:52:20.429Z,20.48
2022-08-29T21:54:50.569Z,20.57
2022-08-29T21:57:40.137Z,20.58
2022-08-29T22:00:10.156Z,20.63
2022-08-29T22:02:38.360Z,20.48
2022-08-29T22:05:08.496Z,20.56
2022-08-29T22:07:38.299Z,20.50
2022-08-29T22:10:07.111Z,20.53
2022-08-29T22:12:35.486Z,20.56
2022-08-29T22:15:21.014Z,20.47
2022-08-29T22:17:49.461Z,20.58
2022-08-29T22:20:20.215Z,20.56
2022-08-29T22:22:48.595Z,20.53
2022-08-29T22:25:17.655Z,20.48
2022-08-29T22:27:46.747Z,20.41
2022-08-29T22:30:16.003Z,20.39
2022-08-29T22:32:44.396Z,20.49
2022-08-29T22:35:23.404Z,20.43
2022-08-29T22:37:54.403Z,20.19
2022-08-29T22:40:23.376Z,20.38
2022-08-29T22:42:51.895Z,20.31
2022-08-29T22:45:21.050Z,20.28
2022-08-29T22:47:49.401Z,20.20
2022-08-29T22:50:20.007Z,20.18
2022-08-29T22:52:50.179Z,20.18
2022-08-29T22:57:49.687Z,20.24
2022-08-29T23:00:23.297Z,20.22
2022-08-29T23:02:52.904Z,20.16
2022-08-29T23:05:24.347Z,20.12
2022-08-29T23:07:54.012Z,20.12
2022-08-29T23:10:22.449Z,20.13
2022-08-29T23:12:50.829Z,19.50
2022-08-29T23:15:19.649Z,19.92
2022-08-29T23:17:48.055Z,20.05
2022-08-29T23:20:19.294Z,20.08
2022-08-29T23:22:48.645Z,19.86
2022-08-29T23:25:18.478Z,19.78
2022-08-29T23:27:46.695Z,19.67
2022-08-29T23:30:15.651Z,19.63
2022-08-29T23:32:43.858Z,19.58
2022-08-29T23:35:12.117Z,19.42
2022-08-29T23:37:40.352Z,19.59
2022-08-29T23:40:09.741Z,19.73
2022-08-29T23:42:39.440Z,19.80
2022-08-29T23:45:10.325Z,19.68
2022-08-29T23:47:38.856Z,19.81
2022-08-29T23:50:07.780Z,19.66
2022-08-29T23:52:36.060Z,19.89
2022-08-29T23:55:04.798Z,19.80
2022-08-29T23:57:32.948Z,19.86
